Akiak, Alaska
Current Conditions -  °F | °C
As of 2:56 AM on Saturday 01 Nov 2014 (Local Time) from PFKW Reporting Station
Overcast Overcast  
Wind Chill: 10°   Ceiling: 5000
Heat Index: 22°   Visibility: 10mi
Dew Point: 20°   Wind: 13mph
Humidity: 92%   Direction: 40°NE
Pressure: 28.87"   Gusts: NA
Location:  60.92°N, 161.23°W
Report Text: PFKW 011056Z AUTO 04011KT 10SM BKN050 OVC070 M06/M07 A2887 RMK AO2 SLP776 T10561067 FZRANO
Loading
Personal Weather Stations






























Interactive Weather Map
Tropical Storm Tracking
New forecast layout! Learn more

10-Day Weather Forecast

Advertisements
Track Severe Weather on mobile